createdAt,value
2022-12-01T00:01:09.099Z,100259.63
2022-12-01T00:03:36.458Z,100247.25
2022-12-01T00:06:06.337Z,100252.47
2022-12-01T00:08:34.163Z,100254.19
2022-12-01T00:11:05.175Z,100254.13
2022-12-01T00:13:32.153Z,100257.69
2022-12-01T00:15:58.709Z,100261.25
2022-12-01T00:18:25.308Z,100261.19
2022-12-01T00:20:56.075Z,100255.03
2022-12-01T00:23:23.473Z,100245.28
2022-12-01T00:25:50.059Z,100248.84
2022-12-01T00:28:16.592Z,100256.75
2022-12-01T00:30:43.157Z,100251.44
2022-12-01T00:33:09.796Z,100251.44
2022-12-01T00:35:36.416Z,100247.94
2022-12-01T00:38:02.959Z,100248.84
2022-12-01T00:40:29.477Z,100247.13
2022-12-01T00:42:56.055Z,100251.50
2022-12-01T00:45:22.839Z,100246.13
2022-12-01T00:47:49.317Z,100240.97
2022-12-01T00:50:15.922Z,100244.44
2022-12-01T00:52:42.411Z,100250.63
2022-12-01T00:55:09.079Z,100254.97
2022-12-01T00:57:35.630Z,100255.00
2022-12-01T01:00:02.480Z,100258.47
2022-12-01T01:02:29.023Z,100252.25
2022-12-01T01:04:55.585Z,100259.34
2022-12-01T01:07:22.292Z,100250.50
2022-12-01T01:09:49.230Z,100254.00
2022-12-01T01:12:15.899Z,100252.19
2022-12-01T01:14:42.432Z,100253.19
2022-12-01T01:17:08.991Z,100252.25
2022-12-01T01:19:35.590Z,100254.84
2022-12-01T01:22:02.086Z,100251.28
2022-12-01T01:24:28.641Z,100251.41
2022-12-01T01:26:55.455Z,100261.97
2022-12-01T01:29:22.263Z,100256.63
2022-12-01T01:31:48.773Z,100252.22
2022-12-01T01:34:15.323Z,100259.31
2022-12-01T01:36:41.820Z,100254.91
2022-12-01T01:39:08.364Z,100259.41
2022-12-01T01:41:34.862Z,100262.03
2022-12-01T01:44:03.143Z,100256.69
2022-12-01T01:46:30.664Z,100254.78
2022-12-01T01:49:09.657Z,100256.63
2022-12-01T01:51:50.335Z,100260.13
2022-12-01T01:54:33.036Z,100255.69
2022-12-01T01:57:01.766Z,100260.06
2022-12-01T01:59:31.693Z,100253.91
2022-12-01T02:02:07.270Z,100258.25
2022-12-01T02:04:40.456Z,100259.25
2022-12-01T02:07:08.239Z,100260.09
2022-12-01T02:09:36.198Z,100247.75
2022-12-01T02:12:26.551Z,100245.13
2022-12-01T02:15:17.441Z,100253.00
2022-12-01T02:18:17.894Z,100245.09
2022-12-01T02:21:21.963Z,100245.09
2022-12-01T02:24:03.726Z,100248.63
2022-12-01T02:26:50.880Z,100248.63
2022-12-01T02:29:40.642Z,100257.47
2022-12-01T02:32:17.454Z,100257.47
2022-12-01T02:34:46.756Z,100261.91
2022-12-01T02:37:24.138Z,100262.78
2022-12-01T02:39:53.588Z,100265.47
2022-12-01T02:42:54.289Z,100260.13
2022-12-01T02:45:28.770Z,100262.78
2022-12-01T02:48:00.674Z,100266.28
2022-12-01T02:50:29.541Z,100268.91
2022-12-01T02:52:56.114Z,100269.81
2022-12-01T02:55:22.753Z,100264.63
2022-12-01T02:57:49.286Z,100270.69
2022-12-01T03:00:17.709Z,100270.69
2022-12-01T03:03:26.624Z,100266.34
2022-12-01T03:06:03.367Z,100258.25
2022-12-01T03:08:39.349Z,100256.53
2022-12-01T03:11:06.349Z,100262.63
2022-12-01T03:13:45.454Z,100256.53
2022-12-01T03:16:14.147Z,100250.34
2022-12-01T03:18:51.880Z,100262.63
2022-12-01T03:21:40.929Z,100257.41
2022-12-01T03:24:15.049Z,100252.06
2022-12-01T03:26:46.002Z,100251.13
2022-12-01T03:29:24.940Z,100256.47
2022-12-01T03:31:59.090Z,100254.63
2022-12-01T03:34:25.862Z,100260.84
2022-12-01T03:36:59.055Z,100259.13
2022-12-01T03:39:33.371Z,100254.78
2022-12-01T03:42:04.067Z,100247.72
2022-12-01T03:44:40.668Z,100254.75
2022-12-01T03:47:12.362Z,100252.00
2022-12-01T03:49:40.548Z,100258.13
2022-12-01T03:52:17.911Z,100260.75
2022-12-01T03:55:09.382Z,100261.69
2022-12-01T03:57:45.550Z,100260.84
2022-12-01T04:00:14.736Z,100261.72
2022-12-01T04:02:42.634Z,100265.19
2022-12-01T04:05:12.031Z,100259.91
2022-12-01T04:07:40.098Z,100263.38
2022-12-01T04:10:08.057Z,100263.38
2022-12-01T04:12:34.554Z,100265.22
2022-12-01T04:15:04.308Z,100267.81
2022-12-01T04:17:31.275Z,100280.06
2022-12-01T04:19:57.882Z,100276.50
2022-12-01T04:22:25.102Z,100273.06
2022-12-01T04:24:51.843Z,100273.16
2022-12-01T04:27:19.025Z,100276.72
2022-12-01T04:29:46.150Z,100270.50
2022-12-01T04:32:13.483Z,100273.94
2022-12-01T04:34:40.015Z,100270.41
2022-12-01T04:37:09.938Z,100268.66
2022-12-01T04:39:36.727Z,100275.75
2022-12-01T04:42:03.457Z,100273.09
2022-12-01T04:44:34.585Z,100280.09
2022-12-01T04:47:02.030Z,100280.97
2022-12-01T04:49:28.542Z,100274.78
2022-12-01T04:51:55.020Z,100274.78
2022-12-01T04:54:22.336Z,100274.78
2022-12-01T04:56:49.084Z,100274.88
2022-12-01T04:59:15.784Z,100275.72
2022-12-01T05:01:42.308Z,100277.41
2022-12-01T05:04:13.328Z,100280.94
2022-12-01T05:06:40.401Z,100279.13
2022-12-01T05:09:07.023Z,100285.34
2022-12-01T05:11:33.884Z,100295.88
2022-12-01T05:14:00.500Z,100281.78
2022-12-01T05:16:32.620Z,100285.25
2022-12-01T05:19:20.746Z,100282.63
2022-12-01T05:21:49.508Z,100276.41
2022-12-01T05:24:17.017Z,100283.56
2022-12-01T05:26:44.843Z,100279.13
2022-12-01T05:29:15.492Z,100275.56
2022-12-01T05:31:42.078Z,100287.03
2022-12-01T05:34:09.128Z,100283.47
2022-12-01T05:36:36.391Z,100292.31
2022-12-01T05:39:03.464Z,100290.56
2022-12-01T05:41:29.842Z,100284.41
2022-12-01T05:43:56.363Z,100295.91
2022-12-01T05:46:22.899Z,100280.94
2022-12-01T05:48:49.457Z,100290.59
2022-12-01T05:51:16.840Z,100287.13
2022-12-01T05:53:43.653Z,100295.78
2022-12-01T05:56:10.140Z,100296.66
2022-12-01T05:58:37.148Z,100297.50
2022-12-01T06:01:03.611Z,100296.59
2022-12-01T06:03:30.147Z,100297.53
2022-12-01T06:05:56.723Z,100297.59
2022-12-01T06:08:23.287Z,100293.94
2022-12-01T06:10:49.795Z,100301.00
2022-12-01T06:13:16.280Z,100300.19
2022-12-01T06:15:42.728Z,100300.16
2022-12-01T06:18:10.085Z,100306.25
2022-12-01T06:20:36.541Z,100307.19
2022-12-01T06:23:03.087Z,100317.00
2022-12-01T06:25:29.669Z,100316.97
2022-12-01T06:27:57.818Z,100320.34
2022-12-01T06:30:25.367Z,100322.94
2022-12-01T06:32:51.907Z,100321.28
2022-12-01T06:35:18.455Z,100322.97
2022-12-01T06:37:44.914Z,100315.88
2022-12-01T06:40:12.275Z,100322.03
2022-12-01T06:42:38.803Z,100327.31
2022-12-01T06:45:05.714Z,100315.06
2022-12-01T06:47:32.196Z,100316.91
2022-12-01T06:49:58.717Z,100322.97
2022-12-01T06:52:25.227Z,100323.84
2022-12-01T06:54:51.725Z,100322.09
2022-12-01T06:57:18.397Z,100334.47
2022-12-01T06:59:45.345Z,100330.03
2022-12-01T07:02:12.346Z,100328.31
2022-12-01T07:04:38.922Z,100328.31
2022-12-01T07:07:05.895Z,100335.41
2022-12-01T07:09:32.275Z,100333.59
2022-12-01T07:11:58.786Z,100335.31
2022-12-01T07:14:30.820Z,100338.88
2022-12-01T07:16:58.296Z,100344.13
2022-12-01T07:19:24.963Z,100356.56
2022-12-01T07:21:51.417Z,100346.81
2022-12-01T07:24:17.926Z,100359.13
2022-12-01T07:26:44.426Z,100353.84
2022-12-01T07:29:11.543Z,100353.88
2022-12-01T07:31:38.852Z,100350.34
2022-12-01T07:34:06.100Z,100347.72
2022-12-01T07:36:32.915Z,100353.03
2022-12-01T07:39:00.230Z,100353.88
2022-12-01T07:41:26.718Z,100351.28
2022-12-01T07:43:56.173Z,100358.31
2022-12-01T07:46:25.577Z,100350.41
2022-12-01T07:48:53.902Z,100355.75
2022-12-01T07:51:22.359Z,100354.84
2022-12-01T07:53:50.310Z,100363.69
2022-12-01T07:56:18.211Z,100363.75
2022-12-01T07:58:44.915Z,100358.47
2022-12-01T08:01:20.475Z,100356.78
2022-12-01T08:03:54.637Z,100361.16
2022-12-01T08:06:22.672Z,100359.38
2022-12-01T08:08:49.875Z,100361.19
2022-12-01T08:11:29.159Z,100355.84
2022-12-01T08:13:56.548Z,100361.19
2022-12-01T08:16:24.522Z,100363.81
2022-12-01T08:18:51.394Z,100355.13
2022-12-01T08:21:19.895Z,100356.00
2022-12-01T08:23:46.695Z,100358.66
2022-12-01T08:26:16.194Z,100362.22
2022-12-01T08:28:43.593Z,100359.56
2022-12-01T08:31:20.580Z,100363.09
2022-12-01T08:33:48.280Z,100365.00
2022-12-01T08:36:15.507Z,100362.22
2022-12-01T08:38:46.161Z,100363.06
2022-12-01T08:41:13.837Z,100353.38
2022-12-01T08:44:00.491Z,100361.34
2022-12-01T08:46:37.056Z,100359.63
2022-12-01T08:49:05.190Z,100351.75
2022-12-01T08:51:32.647Z,100363.25
2022-12-01T08:54:00.491Z,100352.69
2022-12-01T08:56:30.307Z,100357.97
2022-12-01T08:58:58.030Z,100360.66
2022-12-01T09:01:25.871Z,100364.16
2022-12-01T09:04:08.852Z,100370.44
2022-12-01T09:06:42.187Z,100366.91
2022-12-01T09:09:10.466Z,100374.78
2022-12-01T09:11:37.192Z,100380.16
2022-12-01T09:14:03.894Z,100379.22
2022-12-01T09:16:30.864Z,100379.28
2022-12-01T09:18:57.319Z,100373.97
2022-12-01T09:21:26.729Z,100385.44
2022-12-01T09:23:54.336Z,100374.00
2022-12-01T09:26:21.090Z,100378.47
2022-12-01T09:28:59.287Z,100374.97
2022-12-01T09:31:25.850Z,100376.69
2022-12-01T09:34:03.136Z,100368.81
2022-12-01T09:36:31.908Z,100372.38
2022-12-01T09:38:59.172Z,100365.38
2022-12-01T09:41:33.387Z,100365.38
2022-12-01T09:44:21.889Z,100360.91
2022-12-01T09:46:48.523Z,100365.31
2022-12-01T09:49:23.007Z,100362.69
2022-12-01T09:51:54.464Z,100357.41
2022-12-01T09:54:21.449Z,100364.47
2022-12-01T09:56:50.319Z,100366.19
2022-12-01T09:59:22.536Z,100360.88
2022-12-01T10:01:55.154Z,100359.13
2022-12-01T10:04:36.663Z,100349.41
2022-12-01T10:07:23.653Z,100352.13
2022-12-01T10:09:59.207Z,100350.34
2022-12-01T10:12:31.004Z,100355.53
2022-12-01T10:15:12.735Z,100354.75
2022-12-01T10:17:42.043Z,100351.13
2022-12-01T10:20:22.768Z,100355.56
2022-12-01T10:23:12.935Z,100345.06
2022-12-01T10:25:57.291Z,100344.25
2022-12-01T10:28:46.002Z,100342.41
2022-12-01T10:31:18.774Z,100339.84
2022-12-01T10:33:59.593Z,100340.75
2022-12-01T10:36:27.773Z,100333.69
2022-12-01T10:38:54.875Z,100332.84
2022-12-01T10:41:23.692Z,100340.69
2022-12-01T10:43:59.449Z,100332.00
2022-12-01T10:46:33.695Z,100334.56
2022-12-01T10:49:08.007Z,100331.06
2022-12-01T10:51:56.653Z,100326.69
2022-12-01T10:54:31.498Z,100329.28
2022-12-01T10:56:59.483Z,100336.34
2022-12-01T10:59:34.249Z,100337.22
2022-12-01T11:02:02.500Z,100338.13
2022-12-01T11:05:00.043Z,100335.47
2022-12-01T11:07:33.564Z,100340.75
2022-12-01T11:10:06.749Z,100338.97
2022-12-01T11:12:34.132Z,100331.09
2022-12-01T11:15:02.074Z,100333.72
2022-12-01T11:17:33.432Z,100332.84
2022-12-01T11:20:29.168Z,100333.69
2022-12-01T11:23:25.611Z,100331.88
2022-12-01T11:26:03.713Z,100332.84
2022-12-01T11:28:31.786Z,100321.34
2022-12-01T11:31:37.648Z,100323.13
2022-12-01T11:34:04.689Z,100316.00
2022-12-01T11:36:42.555Z,100316.91
2022-12-01T11:39:23.980Z,100323.97
2022-12-01T11:42:00.257Z,100314.34
2022-12-01T11:44:50.161Z,100302.84
2022-12-01T11:47:24.948Z,100309.94
2022-12-01T11:50:03.185Z,100310.84
2022-12-01T11:52:31.155Z,100304.69
2022-12-01T11:54:58.889Z,100308.22
2022-12-01T11:57:35.628Z,100310.13
2022-12-01T12:00:05.866Z,100302.16
2022-12-01T12:03:08.395Z,100292.44
2022-12-01T12:05:42.623Z,100307.41
2022-12-01T12:08:09.065Z,100299.47
2022-12-01T12:10:46.456Z,100297.66
2022-12-01T12:13:30.952Z,100298.56
2022-12-01T12:16:20.878Z,100300.34
2022-12-01T12:19:33.688Z,100300.41
2022-12-01T12:22:20.174Z,100294.16
2022-12-01T12:25:20.111Z,100308.28
2022-12-01T12:27:56.932Z,100301.16
2022-12-01T12:30:26.537Z,100292.38
2022-12-01T12:33:28.530Z,100286.22
2022-12-01T12:35:57.824Z,100293.28
2022-12-01T12:39:12.185Z,100289.78
2022-12-01T12:41:48.584Z,100294.13
2022-12-01T12:44:53.555Z,100285.31
2022-12-01T12:47:45.400Z,100288.84
2022-12-01T12:50:26.552Z,100286.22
2022-12-01T12:52:59.485Z,100285.31
2022-12-01T12:55:46.838Z,100282.66
2022-12-01T12:58:20.475Z,100282.59
2022-12-01T13:00:54.838Z,100281.72
2022-12-01T13:03:38.356Z,100280.84
2022-12-01T13:06:10.094Z,100292.31
2022-12-01T13:08:45.146Z,100283.50
2022-12-01T13:11:27.284Z,100283.47
2022-12-01T13:14:10.730Z,100283.50
2022-12-01T13:16:41.618Z,100292.25
2022-12-01T13:19:30.667Z,100286.97
2022-12-01T13:21:58.617Z,100278.22
2022-12-01T13:24:28.848Z,100279.94
2022-12-01T13:27:14.403Z,100272.88
2022-12-01T13:29:46.748Z,100282.59
2022-12-01T13:32:31.898Z,100282.59
2022-12-01T13:35:00.387Z,100282.59
2022-12-01T13:37:29.929Z,100277.31
2022-12-01T13:40:27.221Z,100285.16
2022-12-01T13:43:00.276Z,100274.53
2022-12-01T13:45:37.552Z,100280.72
2022-12-01T13:48:05.982Z,100289.59
2022-12-01T13:50:45.966Z,100283.38
2022-12-01T13:53:13.676Z,100291.38
2022-12-01T13:56:17.331Z,100295.72
2022-12-01T13:58:49.255Z,100293.09
2022-12-01T14:01:22.740Z,100298.38
2022-12-01T14:03:57.262Z,100292.16
2022-12-01T14:06:35.999Z,100282.44
2022-12-01T14:09:15.700Z,100278.91
2022-12-01T14:11:54.241Z,100286.00
2022-12-01T14:14:26.268Z,100275.44
2022-12-01T14:16:58.566Z,100279.81
2022-12-01T14:19:33.441Z,100271.03
2022-12-01T14:22:05.665Z,100278.03
2022-12-01T14:24:35.492Z,100274.47
2022-12-01T14:27:03.728Z,100271.88
2022-12-01T14:29:38.833Z,100274.53
2022-12-01T14:32:25.608Z,100267.47
2022-12-01T14:34:53.624Z,100268.31
2022-12-01T14:37:23.919Z,100276.19
2022-12-01T14:40:07.792Z,100268.31
2022-12-01T14:42:57.441Z,100275.38
2022-12-01T14:45:30.305Z,100275.38
2022-12-01T14:48:05.784Z,100274.41
2022-12-01T14:50:49.291Z,100273.59
2022-12-01T14:53:26.205Z,100263.88
2022-12-01T14:55:56.473Z,100269.13
2022-12-01T14:58:29.127Z,100265.59
2022-12-01T15:01:07.549Z,100259.38
2022-12-01T15:03:47.462Z,100261.13
2022-12-01T15:06:23.128Z,100259.34
2022-12-01T15:09:33.920Z,100256.72
2022-12-01T15:12:04.836Z,100246.13
2022-12-01T15:14:46.608Z,100246.94
2022-12-01T15:17:31.993Z,100254.84
2022-12-01T15:19:59.096Z,100251.34
2022-12-01T15:22:28.800Z,100256.69
2022-12-01T15:25:05.377Z,100258.47
2022-12-01T15:27:32.828Z,100252.28
2022-12-01T15:30:04.430Z,100258.41
2022-12-01T15:32:34.350Z,100258.41
2022-12-01T15:35:03.517Z,100256.69
2022-12-01T15:37:39.618Z,100258.41
2022-12-01T15:40:59.556Z,100263.63
2022-12-01T15:43:06.849Z,100268.91
2022-12-01T15:45:48.395Z,100266.25
2022-12-01T15:48:29.410Z,100261.88
2022-12-01T15:51:04.627Z,100260.09
2022-12-01T15:53:34.407Z,100261.81
2022-12-01T15:56:05.665Z,100261.81
2022-12-01T15:58:36.315Z,100260.97
2022-12-01T16:01:09.968Z,100262.69
2022-12-01T16:03:48.115Z,100266.28
2022-12-01T16:06:14.617Z,100261.00
2022-12-01T16:08:41.181Z,100253.06
2022-12-01T16:11:15.944Z,100264.47
2022-12-01T16:13:50.219Z,100268.81
2022-12-01T16:16:35.503Z,100262.66
2022-12-01T16:19:32.175Z,100264.41
2022-12-01T16:22:10.626Z,100266.25
2022-12-01T16:24:52.550Z,100261.03
2022-12-01T16:27:29.680Z,100267.16
2022-12-01T16:30:01.659Z,100261.88
2022-12-01T16:32:39.301Z,100253.91
2022-12-01T16:35:19.922Z,100260.91
2022-12-01T16:37:46.437Z,100256.53
2022-12-01T16:40:13.941Z,100260.91
2022-12-01T16:42:40.383Z,100264.44
2022-12-01T16:45:07.962Z,100258.25
2022-12-01T16:47:34.492Z,100256.53
2022-12-01T16:50:01.030Z,100258.28
2022-12-01T16:52:44.765Z,100257.44
2022-12-01T16:55:33.596Z,100262.69
2022-12-01T16:58:00.079Z,100258.31
2022-12-01T17:00:27.471Z,100264.53
2022-12-01T17:02:54.002Z,100265.41
2022-12-01T17:05:21.168Z,100267.19
2022-12-01T17:07:48.179Z,100264.59
2022-12-01T17:10:15.120Z,100261.91
2022-12-01T17:12:41.669Z,100267.19
2022-12-01T17:15:08.615Z,100258.41
2022-12-01T17:17:35.249Z,100264.53
2022-12-01T17:20:02.456Z,100263.75
2022-12-01T17:22:29.226Z,100266.34
2022-12-01T17:24:55.780Z,100258.41
2022-12-01T17:27:23.377Z,100261.06
2022-12-01T17:29:49.959Z,100257.56
2022-12-01T17:32:16.611Z,100253.16
2022-12-01T17:34:43.094Z,100256.69
2022-12-01T17:37:09.623Z,100260.19
2022-12-01T17:39:36.280Z,100262.84
2022-12-01T17:42:02.775Z,100261.13
2022-12-01T17:44:29.279Z,100262.91
2022-12-01T17:46:56.010Z,100266.41
2022-12-01T17:49:22.635Z,100267.25
2022-12-01T17:51:49.138Z,100269.03
2022-12-01T17:54:15.686Z,100269.03
2022-12-01T17:56:43.325Z,100275.19
2022-12-01T17:59:09.870Z,100266.41
2022-12-01T18:01:36.670Z,100261.13
2022-12-01T18:04:03.360Z,100265.50
2022-12-01T18:06:30.049Z,100269.94
2022-12-01T18:08:57.564Z,100265.53
2022-12-01T18:11:24.254Z,100258.50
2022-12-01T18:13:52.181Z,100268.19
2022-12-01T18:16:20.364Z,100267.25
2022-12-01T18:18:47.692Z,100271.63
2022-12-01T18:21:16.833Z,100277.75
2022-12-01T18:23:49.807Z,100270.75
2022-12-01T18:26:16.814Z,100269.03
2022-12-01T18:28:43.454Z,100270.75
2022-12-01T18:31:11.501Z,100271.66
2022-12-01T18:33:40.293Z,100269.94
2022-12-01T18:36:13.339Z,100266.41
2022-12-01T18:38:41.226Z,100264.63
2022-12-01T18:41:07.781Z,100266.41
2022-12-01T18:43:34.759Z,100261.13
2022-12-01T18:46:02.670Z,100257.56
2022-12-01T18:48:29.219Z,100257.63
2022-12-01T18:50:59.404Z,100253.19
2022-12-01T18:53:27.007Z,100254.91
2022-12-01T18:55:53.748Z,100253.13
2022-12-01T18:58:20.257Z,100253.16
2022-12-01T19:00:46.823Z,100246.16
2022-12-01T19:03:13.442Z,100249.66
2022-12-01T19:05:40.417Z,100251.41
2022-12-01T19:08:07.261Z,100245.22
2022-12-01T19:10:33.735Z,100242.63
2022-12-01T19:13:00.641Z,100241.78
2022-12-01T19:15:27.548Z,100242.63
2022-12-01T19:17:54.867Z,100243.56
2022-12-01T19:20:21.342Z,100241.69
2022-12-01T19:22:47.828Z,100243.50
2022-12-01T19:25:14.499Z,100247.00
2022-12-01T19:27:41.115Z,100247.94
2022-12-01T19:30:08.164Z,100239.16
2022-12-01T19:32:34.760Z,100242.66
2022-12-01T19:35:01.430Z,100243.56
2022-12-01T19:37:27.931Z,100246.22
2022-12-01T19:39:54.569Z,100243.56
2022-12-01T19:42:21.022Z,100244.41
2022-12-01T19:44:47.637Z,100244.41
2022-12-01T19:47:17.780Z,100245.34
2022-12-01T19:49:48.327Z,100242.66
2022-12-01T19:52:14.816Z,100238.22
2022-12-01T19:54:41.347Z,100244.41
2022-12-01T19:57:07.823Z,100231.22
2022-12-01T19:59:34.278Z,100233.00
2022-12-01T20:02:00.834Z,100238.28
2022-12-01T20:04:27.497Z,100234.78
2022-12-01T20:06:54.003Z,100234.72
2022-12-01T20:09:20.563Z,100242.63
2022-12-01T20:11:47.138Z,100234.72
2022-12-01T20:14:13.669Z,100238.22
2022-12-01T20:16:40.435Z,100233.81
2022-12-01T20:19:07.561Z,100227.72
2022-12-01T20:21:39.142Z,100236.50
2022-12-01T20:24:07.574Z,100229.44
2022-12-01T20:26:37.217Z,100227.66
2022-12-01T20:29:11.088Z,100224.16
2022-12-01T20:31:38.468Z,100235.59
2022-12-01T20:34:09.212Z,100233.88
2022-12-01T20:36:36.121Z,100242.69
2022-12-01T20:39:03.978Z,100228.63
2022-12-01T20:41:30.474Z,100230.44
2022-12-01T20:43:56.995Z,100231.28
2022-12-01T20:46:23.986Z,100234.00
2022-12-01T20:48:50.521Z,100234.00
2022-12-01T20:51:17.197Z,100227.84
2022-12-01T20:53:54.672Z,100219.94
2022-12-01T20:56:31.560Z,100220.81
2022-12-01T20:58:58.981Z,100211.16
2022-12-01T21:01:27.470Z,100220.84
2022-12-01T21:03:54.511Z,100211.16
2022-12-01T21:06:21.271Z,100215.56
2022-12-01T21:08:49.076Z,100214.69
2022-12-01T21:12:08.153Z,100218.22
2022-12-01T21:14:37.837Z,100206.78
2022-12-01T21:17:18.534Z,100208.50
2022-12-01T21:20:08.992Z,100205.88
2022-12-01T21:22:36.491Z,100206.78
2022-12-01T21:25:12.260Z,100215.56
2022-12-01T21:27:38.826Z,100204.16
2022-12-01T21:30:15.779Z,100209.44
2022-12-01T21:32:44.249Z,100206.75
2022-12-01T21:35:17.485Z,100210.28
2022-12-01T21:37:44.615Z,100214.66
2022-12-01T21:40:23.774Z,100217.34
2022-12-01T21:42:51.401Z,100219.13
2022-12-01T21:45:27.964Z,100214.72
2022-12-01T21:48:00.461Z,100224.41
2022-12-01T21:50:27.410Z,100212.06
2022-12-01T21:52:53.936Z,100206.81
2022-12-01T21:55:20.366Z,100210.34
2022-12-01T21:57:48.781Z,100206.84
2022-12-01T22:00:35.957Z,100204.22
2022-12-01T22:03:08.343Z,100205.13
2022-12-01T22:05:40.420Z,100206.06
2022-12-01T22:08:48.117Z,100214.84
2022-12-01T22:11:30.889Z,100204.28
2022-12-01T22:14:23.065Z,100198.97
2022-12-01T22:17:12.838Z,100198.06
2022-12-01T22:19:42.485Z,100198.97
2022-12-01T22:22:08.978Z,100199.84
2022-12-01T22:24:51.677Z,100193.69
2022-12-01T22:27:28.648Z,100199.91
2022-12-01T22:30:02.689Z,100198.13
2022-12-01T22:32:58.167Z,100201.66
2022-12-01T22:35:34.924Z,100197.25
2022-12-01T22:38:04.100Z,100196.41
2022-12-01T22:40:34.165Z,100192.91
2022-12-01T22:43:29.267Z,100186.69
2022-12-01T22:46:01.865Z,100187.59
2022-12-01T22:48:39.102Z,100191.13
2022-12-01T22:51:26.738Z,100182.31
2022-12-01T22:54:14.695Z,100191.13
2022-12-01T22:56:44.057Z,100188.47
2022-12-01T22:59:38.836Z,100175.28
2022-12-01T23:02:21.007Z,100172.63
2022-12-01T23:04:50.075Z,100171.75
2022-12-01T23:07:32.154Z,100170.03
2022-12-01T23:10:14.528Z,100166.47
2022-12-01T23:12:41.424Z,100170.00
2022-12-01T23:15:19.719Z,100174.41
2022-12-01T23:17:46.219Z,100166.53
2022-12-01T23:20:33.542Z,100160.34
2022-12-01T23:23:14.917Z,100162.97
2022-12-01T23:25:42.211Z,100152.41
2022-12-01T23:28:10.686Z,100155.06
2022-12-01T23:30:40.283Z,100152.47
2022-12-01T23:33:21.551Z,100149.81
2022-12-01T23:35:55.811Z,100150.69
2022-12-01T23:39:02.403Z,100148.91
2022-12-01T23:41:35.590Z,100141.88
2022-12-01T23:44:12.085Z,100143.66
2022-12-01T23:46:38.730Z,100146.31
2022-12-01T23:49:12.759Z,100150.69
2022-12-01T23:51:44.111Z,100138.34
2022-12-01T23:54:18.362Z,100144.47
2022-12-01T23:56:49.821Z,100140.09
2022-12-01T23:59:16.527Z,100136.56
